createdAt,value
2023-01-11T00:01:55.249Z,0.00
2023-01-11T00:04:23.323Z,0.00
2023-01-11T00:06:50.047Z,0.00
2023-01-11T00:09:17.057Z,0.00
2023-01-11T00:11:43.654Z,0.00
2023-01-11T00:14:10.261Z,0.00
2023-01-11T00:16:37.542Z,0.00
2023-01-11T00:19:04.216Z,0.00
2023-01-11T00:21:31.472Z,0.00
2023-01-11T00:23:58.159Z,0.00
2023-01-11T00:26:24.999Z,0.00
2023-01-11T00:28:52.619Z,0.00
2023-01-11T00:31:19.320Z,0.00
2023-01-11T00:33:46.185Z,0.00
2023-01-11T00:36:13.049Z,0.00
2023-01-11T00:38:51.735Z,0.00
2023-01-11T00:41:37.719Z,0.00
2023-01-11T00:44:24.700Z,0.00
2023-01-11T00:47:10.298Z,0.00
2023-01-11T00:49:36.965Z,0.00
2023-01-11T00:52:09.577Z,0.00
2023-01-11T00:54:38.610Z,0.00
2023-01-11T00:57:07.347Z,0.00
2023-01-11T00:59:35.847Z,0.00
2023-01-11T01:02:03.678Z,0.00
2023-01-11T01:04:30.434Z,0.00
2023-01-11T01:06:57.148Z,0.00
2023-01-11T01:09:23.772Z,0.00
2023-01-11T01:11:50.401Z,0.00
2023-01-11T01:14:25.909Z,0.00
2023-01-11T01:16:57.741Z,0.00
2023-01-11T01:19:27.587Z,0.00
2023-01-11T01:21:59.151Z,0.00
2023-01-11T01:24:28.764Z,0.00
2023-01-11T01:26:59.293Z,0.00
2023-01-11T01:29:26.331Z,0.00
2023-01-11T01:31:52.970Z,0.00
2023-01-11T01:34:19.641Z,0.00
2023-01-11T01:36:46.244Z,0.00
2023-01-11T01:39:13.122Z,0.00
2023-01-11T01:41:39.913Z,0.00
2023-01-11T01:44:54.312Z,0.00
2023-01-11T01:47:38.894Z,0.00
2023-01-11T01:50:31.947Z,0.00
2023-01-11T01:53:17.111Z,0.00
2023-01-11T01:55:51.960Z,0.00
2023-01-11T01:58:22.227Z,0.00
2023-01-11T02:00:48.853Z,0.00
2023-01-11T02:03:20.850Z,0.00
2023-01-11T02:05:48.258Z,0.00
2023-01-11T02:08:26.329Z,0.00
2023-01-11T02:10:54.255Z,1.20
2023-01-11T02:13:21.204Z,0.00
2023-01-11T02:16:07.409Z,0.00
2023-01-11T02:18:37.434Z,0.00
2023-01-11T02:21:36.312Z,0.00
2023-01-11T02:24:21.631Z,0.00
2023-01-11T02:27:24.323Z,0.00
2023-01-11T02:30:39.059Z,0.00
2023-01-11T02:33:29.540Z,0.00
2023-01-11T02:36:15.497Z,0.00
2023-01-11T02:38:44.755Z,0.00
2023-01-11T02:41:52.620Z,0.00
2023-01-11T02:44:47.291Z,0.00
2023-01-11T02:47:21.883Z,0.00
2023-01-11T02:50:02.964Z,0.00
2023-01-11T02:52:44.692Z,0.00
2023-01-11T02:55:13.277Z,0.00
2023-01-11T02:57:42.665Z,0.00
2023-01-11T03:00:11.683Z,0.00
2023-01-11T03:02:38.306Z,0.00
2023-01-11T03:05:15.002Z,0.00
2023-01-11T03:07:47.675Z,0.00
2023-01-11T03:10:33.751Z,0.00
2023-01-11T03:13:41.061Z,0.00
2023-01-11T03:19:02.257Z,0.00
2023-01-11T03:21:46.358Z,0.00
2023-01-11T03:24:47.526Z,0.00
2023-01-11T03:27:47.281Z,0.00
2023-01-11T03:30:31.801Z,0.00
2023-01-11T03:33:04.607Z,0.00
2023-01-11T03:36:00.831Z,0.00
2023-01-11T03:38:40.664Z,0.00
2023-01-11T03:41:18.156Z,0.00
2023-01-11T03:43:48.058Z,0.00
2023-01-11T03:46:22.515Z,0.00
2023-01-11T03:49:02.789Z,0.00
2023-01-11T03:51:34.949Z,0.00
2023-01-11T03:54:06.989Z,0.00
2023-01-11T03:57:09.806Z,0.00
2023-01-11T03:59:36.782Z,0.00
2023-01-11T04:02:03.514Z,0.00
2023-01-11T04:04:30.185Z,0.00
2023-01-11T04:06:56.941Z,0.00
2023-01-11T04:09:23.571Z,0.00
2023-01-11T04:11:50.254Z,0.00
2023-01-11T04:14:16.945Z,0.00
2023-01-11T04:16:43.525Z,0.00
2023-01-11T04:19:10.098Z,0.00
2023-01-11T04:21:36.744Z,0.00
2023-01-11T04:24:03.639Z,0.00
2023-01-11T04:26:30.232Z,0.00
2023-01-11T04:28:56.809Z,0.00
2023-01-11T04:31:23.390Z,0.00
2023-01-11T04:33:49.983Z,0.00
2023-01-11T04:36:19.551Z,0.00
2023-01-11T04:38:46.156Z,0.00
2023-01-11T04:41:31.610Z,0.00
2023-01-11T04:43:58.442Z,0.00
2023-01-11T04:46:25.123Z,0.00
2023-01-11T04:48:53.209Z,0.00
2023-01-11T04:51:19.820Z,0.00
2023-01-11T04:53:49.169Z,0.00
2023-01-11T04:56:16.696Z,0.00
2023-01-11T04:58:43.425Z,0.00
2023-01-11T05:01:17.287Z,0.00
2023-01-11T05:03:45.352Z,0.00
2023-01-11T05:06:12.858Z,0.00
2023-01-11T05:08:46.441Z,0.00
2023-01-11T05:11:13.359Z,0.00
2023-01-11T05:13:42.723Z,0.00
2023-01-11T05:16:23.912Z,0.00
2023-01-11T05:18:54.161Z,0.00
2023-01-11T05:21:26.122Z,0.00
2023-01-11T05:23:54.222Z,0.00
2023-01-11T05:26:24.638Z,0.00
2023-01-11T05:28:52.621Z,0.00
2023-01-11T05:31:19.626Z,0.00
2023-01-11T05:33:46.419Z,0.00
2023-01-11T05:36:16.672Z,0.00
2023-01-11T05:38:46.564Z,0.00
2023-01-11T05:41:14.082Z,0.00
2023-01-11T05:44:01.908Z,0.00
2023-01-11T05:46:28.793Z,0.00
2023-01-11T05:48:56.306Z,0.00
2023-01-11T05:51:23.108Z,0.00
2023-01-11T05:53:49.951Z,0.00
2023-01-11T05:56:16.745Z,0.00
2023-01-11T05:58:43.331Z,0.00
2023-01-11T06:01:12.682Z,0.65
2023-01-11T06:03:39.309Z,0.00
2023-01-11T06:06:06.732Z,0.00
2023-01-11T06:08:33.334Z,0.00
2023-01-11T06:11:00.322Z,0.00
2023-01-11T06:13:27.295Z,0.00
2023-01-11T06:16:05.960Z,0.00
2023-01-11T06:18:41.962Z,0.00
2023-01-11T06:21:10.185Z,0.00
2023-01-11T06:23:40.827Z,0.00
2023-01-11T06:26:11.299Z,0.00
2023-01-11T06:28:38.498Z,0.00
2023-01-11T06:31:06.273Z,0.00
2023-01-11T06:33:33.437Z,0.00
2023-01-11T06:36:09.495Z,0.00
2023-01-11T06:38:37.752Z,0.00
2023-01-11T06:41:08.398Z,0.00
2023-01-11T06:43:37.942Z,0.00
2023-01-11T06:46:14.822Z,0.00
2023-01-11T06:48:42.927Z,0.00
2023-01-11T06:51:13.189Z,0.00
2023-01-11T06:53:42.232Z,0.00
2023-01-11T06:56:14.231Z,0.00
2023-01-11T06:58:40.986Z,0.00
2023-01-11T07:01:07.877Z,0.00
2023-01-11T07:03:35.260Z,0.00
2023-01-11T07:06:02.648Z,0.00
2023-01-11T07:08:29.455Z,0.00
2023-01-11T07:10:56.150Z,0.00
2023-01-11T07:13:22.861Z,0.00
2023-01-11T07:15:52.230Z,0.00
2023-01-11T07:18:20.045Z,0.00
2023-01-11T07:20:46.998Z,0.00
2023-01-11T07:23:13.832Z,0.00
2023-01-11T07:25:41.086Z,0.00
2023-01-11T07:28:09.411Z,0.00
2023-01-11T07:30:55.984Z,0.00
2023-01-11T07:33:25.276Z,0.00
2023-01-11T07:35:51.940Z,0.00
2023-01-11T07:38:18.541Z,0.00
2023-01-11T07:40:45.168Z,0.00
2023-01-11T07:43:14.912Z,0.00
2023-01-11T07:45:47.064Z,0.00
2023-01-11T07:48:15.649Z,0.00
2023-01-11T07:50:44.790Z,0.00
2023-01-11T07:53:12.906Z,0.00
2023-01-11T07:55:41.046Z,0.00
2023-01-11T07:58:12.061Z,0.00
2023-01-11T08:00:40.743Z,0.00
2023-01-11T08:03:07.840Z,0.00
2023-01-11T08:05:34.634Z,0.00
2023-01-11T08:08:01.713Z,0.00
2023-01-11T08:10:28.393Z,0.00
2023-01-11T08:13:13.782Z,0.00
2023-01-11T08:15:43.806Z,0.00
2023-01-11T08:18:12.024Z,0.00
2023-01-11T08:20:40.028Z,0.00
2023-01-11T08:23:09.702Z,0.00
2023-01-11T08:25:37.259Z,0.00
2023-01-11T08:28:07.392Z,0.00
2023-01-11T08:30:35.215Z,0.00
2023-01-11T08:33:02.481Z,0.00
2023-01-11T08:35:30.527Z,0.00
2023-01-11T08:37:57.270Z,0.00
2023-01-11T08:40:25.537Z,0.00
2023-01-11T08:42:58.886Z,0.00
2023-01-11T08:45:26.061Z,0.00
2023-01-11T08:47:53.253Z,0.00
2023-01-11T08:50:22.292Z,0.00
2023-01-11T08:52:50.642Z,0.00
2023-01-11T08:55:17.543Z,0.00
2023-01-11T08:57:44.348Z,0.00
2023-01-11T09:00:11.942Z,0.00
2023-01-11T09:02:38.656Z,0.00
2023-01-11T09:05:06.091Z,0.00
2023-01-11T09:07:32.720Z,0.08
2023-01-11T09:09:59.364Z,0.00
2023-01-11T09:12:27.567Z,0.00
2023-01-11T09:14:54.280Z,0.10
2023-01-11T09:17:20.893Z,0.10
2023-01-11T09:19:47.493Z,0.00
2023-01-11T09:22:14.179Z,0.00
2023-01-11T09:24:40.829Z,0.00
2023-01-11T09:27:07.653Z,0.00
2023-01-11T09:29:37.038Z,0.00
2023-01-11T09:32:04.649Z,0.00
2023-01-11T09:34:31.580Z,0.00
2023-01-11T09:37:00.532Z,0.00
2023-01-11T09:39:28.682Z,0.00
2023-01-11T09:42:31.295Z,0.00
2023-01-11T09:45:05.317Z,0.00
2023-01-11T09:47:36.560Z,0.00
2023-01-11T09:50:14.635Z,0.00
2023-01-11T09:52:45.914Z,0.00
2023-01-11T09:55:25.016Z,0.00
2023-01-11T09:58:07.276Z,0.00
2023-01-11T10:01:10.946Z,0.32
2023-01-11T10:03:54.358Z,0.00
2023-01-11T10:07:12.337Z,0.00
2023-01-11T10:18:32.627Z,0.10
2023-01-11T10:19:45.173Z,0.00
2023-01-11T10:22:35.055Z,0.00
2023-01-11T10:25:16.960Z,0.00
2023-01-11T10:28:04.550Z,0.00
2023-01-11T10:30:59.529Z,0.00
2023-01-11T10:33:58.541Z,0.00
2023-01-11T10:36:50.391Z,0.00
2023-01-11T10:39:47.255Z,0.00
2023-01-11T10:42:28.595Z,0.00
2023-01-11T10:45:52.899Z,0.00
2023-01-11T10:48:45.993Z,0.00
2023-01-11T10:51:34.519Z,0.00
2023-01-11T10:54:12.374Z,0.00
2023-01-11T10:57:04.742Z,0.00
2023-01-11T11:00:09.231Z,0.00
2023-01-11T11:02:50.953Z,0.00
2023-01-11T11:05:27.605Z,0.00
2023-01-11T11:08:40.587Z,0.00
2023-01-11T11:11:16.626Z,0.80
2023-01-11T11:14:20.386Z,0.00
2023-01-11T11:17:04.681Z,0.00
2023-01-11T11:19:33.157Z,0.00
2023-01-11T11:22:00.075Z,0.00
2023-01-11T11:25:03.674Z,0.00
2023-01-11T11:27:44.821Z,0.47
2023-01-11T11:30:14.096Z,0.00
2023-01-11T11:32:53.475Z,0.00
2023-01-11T11:35:59.737Z,0.25
2023-01-11T11:38:30.471Z,0.00
2023-01-11T11:41:07.918Z,0.00
2023-01-11T11:44:18.230Z,0.00
2023-01-11T11:47:06.212Z,0.00
2023-01-11T11:49:35.945Z,0.00
2023-01-11T11:52:05.733Z,0.00
2023-01-11T11:57:43.206Z,0.00
2023-01-11T12:03:13.593Z,0.00
2023-01-11T12:05:58.084Z,0.00
2023-01-11T12:08:25.861Z,0.00
2023-01-11T12:10:59.811Z,0.00
2023-01-11T12:13:36.330Z,0.00
2023-01-11T12:16:23.254Z,0.00
2023-01-11T12:18:49.927Z,0.00
2023-01-11T12:21:26.619Z,0.00
2023-01-11T12:24:18.309Z,0.00
2023-01-11T12:27:16.861Z,0.10
2023-01-11T12:30:23.757Z,0.00
2023-01-11T12:33:15.192Z,0.00
2023-01-11T12:35:52.766Z,0.00
2023-01-11T12:38:42.220Z,0.00
2023-01-11T12:42:14.030Z,0.00
2023-01-11T12:45:04.636Z,0.00
2023-01-11T12:48:04.558Z,0.05
2023-01-11T12:50:40.622Z,0.00
2023-01-11T12:53:22.669Z,1.63
2023-01-11T12:56:19.154Z,0.00
2023-01-11T12:58:58.958Z,0.00
2023-01-11T13:01:28.685Z,0.28
2023-01-11T13:04:07.382Z,0.10
2023-01-11T13:06:56.580Z,0.00
2023-01-11T13:09:54.270Z,0.00
2023-01-11T13:12:42.342Z,0.00
2023-01-11T13:15:32.943Z,0.00
2023-01-11T13:18:34.102Z,0.00
2023-01-11T13:21:36.799Z,0.00
2023-01-11T13:24:15.617Z,0.00
2023-01-11T13:26:47.651Z,0.40
2023-01-11T13:29:30.932Z,0.15
2023-01-11T13:32:11.515Z,0.52
2023-01-11T13:34:48.364Z,1.08
2023-01-11T13:37:50.319Z,1.65
2023-01-11T13:40:32.792Z,1.33
2023-01-11T13:43:36.892Z,1.77
2023-01-11T13:46:22.902Z,1.90
2023-01-11T13:49:00.407Z,1.77
2023-01-11T13:51:38.350Z,2.30
2023-01-11T13:54:16.643Z,1.77
2023-01-11T13:56:52.359Z,2.05
2023-01-11T14:02:11.728Z,1.73
2023-01-11T14:05:00.996Z,2.10
2023-01-11T14:08:22.786Z,2.83
2023-01-11T14:11:19.593Z,1.88
2023-01-11T14:14:21.633Z,2.58
2023-01-11T14:17:04.830Z,2.45
2023-01-11T14:19:48.495Z,2.88
2023-01-11T14:22:24.319Z,2.30
2023-01-11T14:27:55.252Z,2.35
2023-01-11T14:31:07.696Z,2.88
2023-01-11T14:33:43.411Z,2.88
2023-01-11T14:36:50.944Z,2.67
2023-01-11T14:39:26.051Z,2.00
2023-01-11T14:42:02.686Z,3.08
2023-01-11T14:45:17.419Z,2.05
2023-01-11T14:48:08.298Z,2.60
2023-01-11T14:51:15.550Z,2.40
2023-01-11T14:56:49.125Z,1.98
2023-01-11T14:59:30.981Z,3.55
2023-01-11T15:02:03.941Z,2.42
2023-01-11T15:04:52.575Z,1.70
2023-01-11T15:07:31.374Z,2.72
2023-01-11T15:10:01.727Z,2.55
2023-01-11T15:12:39.861Z,3.00
2023-01-11T15:15:16.634Z,2.78
2023-01-11T15:18:02.231Z,2.63
2023-01-11T15:20:29.368Z,1.98
2023-01-11T15:23:05.902Z,3.33
2023-01-11T15:25:34.629Z,2.25
2023-01-11T15:28:24.255Z,2.80
2023-01-11T15:30:54.001Z,3.53
2023-01-11T15:33:20.740Z,3.00
2023-01-11T15:35:56.512Z,2.30
2023-01-11T15:41:28.835Z,3.03
2023-01-11T15:44:28.412Z,3.47
2023-01-11T15:47:45.947Z,2.58
2023-01-11T15:50:32.340Z,2.65
2023-01-11T15:53:04.853Z,2.73
2023-01-11T15:56:11.197Z,3.47
2023-01-11T15:59:18.028Z,2.50
2023-01-11T16:02:15.678Z,2.05
2023-01-11T16:05:14.773Z,2.72
2023-01-11T16:08:27.592Z,2.55
2023-01-11T16:11:22.151Z,2.72
2023-01-11T16:14:24.798Z,2.53
2023-01-11T16:16:55.297Z,2.83
2023-01-11T16:19:26.256Z,2.65
2023-01-11T16:22:01.748Z,3.47
2023-01-11T16:24:37.637Z,2.67
2023-01-11T16:29:35.823Z,2.50
2023-01-11T16:32:02.546Z,2.47
2023-01-11T16:34:42.525Z,1.35
2023-01-11T16:37:41.995Z,2.20
2023-01-11T16:40:31.889Z,2.75
2023-01-11T16:43:16.371Z,1.95
2023-01-11T16:45:47.351Z,2.65
2023-01-11T16:48:23.490Z,2.40
2023-01-11T16:51:14.151Z,1.45
2023-01-11T16:53:43.719Z,2.05
2023-01-11T16:56:16.077Z,3.65
2023-01-11T16:58:43.380Z,2.75
2023-01-11T17:01:15.266Z,2.05
2023-01-11T17:03:54.541Z,1.88
2023-01-11T17:06:24.345Z,2.17
2023-01-11T17:08:54.218Z,1.65
2023-01-11T17:11:36.883Z,1.73
2023-01-11T17:14:10.674Z,1.77
2023-01-11T17:16:41.896Z,2.13
2023-01-11T17:19:27.737Z,2.15
2023-01-11T17:22:07.336Z,1.90
2023-01-11T17:24:41.527Z,2.00
2023-01-11T17:27:28.248Z,2.13
2023-01-11T17:29:57.781Z,1.70
2023-01-11T17:32:38.251Z,2.08
2023-01-11T17:35:31.140Z,1.83
2023-01-11T17:38:01.984Z,1.70
2023-01-11T17:40:34.433Z,1.63
2023-01-11T17:43:42.846Z,2.10
2023-01-11T17:46:26.317Z,2.08
2023-01-11T17:48:59.408Z,1.38
2023-01-11T17:51:32.065Z,2.03
2023-01-11T17:53:59.403Z,1.98
2023-01-11T17:56:54.333Z,1.67
2023-01-11T17:59:25.927Z,1.92
2023-01-11T18:02:03.840Z,2.20
2023-01-11T18:04:31.677Z,2.75
2023-01-11T18:07:19.095Z,1.88
2023-01-11T18:09:57.657Z,1.48
2023-01-11T18:12:34.718Z,1.52
2023-01-11T18:15:06.072Z,1.77
2023-01-11T18:17:44.276Z,2.10
2023-01-11T18:20:10.827Z,1.63
2023-01-11T18:22:59.281Z,1.45
2023-01-11T18:25:28.276Z,2.65
2023-01-11T18:28:30.097Z,2.00
2023-01-11T18:31:01.628Z,2.53
2023-01-11T18:33:33.030Z,2.10
2023-01-11T18:36:03.561Z,1.80
2023-01-11T18:38:36.033Z,2.65
2023-01-11T18:41:27.262Z,2.42
2023-01-11T18:43:55.107Z,2.50
2023-01-11T18:46:21.878Z,2.72
2023-01-11T18:48:48.625Z,2.13
2023-01-11T18:51:19.552Z,2.22
2023-01-11T18:53:46.205Z,2.13
2023-01-11T18:56:14.404Z,2.53
2023-01-11T18:58:41.205Z,1.67
2023-01-11T19:01:09.487Z,1.98
2023-01-11T19:03:37.312Z,1.67
2023-01-11T19:06:05.417Z,2.00
2023-01-11T19:08:32.344Z,2.55
2023-01-11T19:10:58.967Z,1.70
2023-01-11T19:13:25.676Z,1.85
2023-01-11T19:15:52.316Z,2.47
2023-01-11T19:18:18.983Z,2.05
2023-01-11T19:20:45.608Z,3.72
2023-01-11T19:23:12.280Z,1.83
2023-01-11T19:25:38.995Z,4.15
2023-01-11T19:28:05.960Z,2.40
2023-01-11T19:30:32.589Z,2.78
2023-01-11T19:32:59.217Z,1.70
2023-01-11T19:35:25.910Z,1.70
2023-01-11T19:37:53.189Z,2.80
2023-01-11T19:40:21.267Z,1.85
2023-01-11T19:42:48.038Z,2.15
2023-01-11T19:45:14.826Z,2.72
2023-01-11T19:47:42.117Z,1.92
2023-01-11T19:50:09.484Z,1.98
2023-01-11T19:52:36.095Z,2.55
2023-01-11T19:55:02.728Z,2.65
2023-01-11T19:57:29.639Z,2.42
2023-01-11T19:59:56.304Z,2.22
2023-01-11T20:02:23.125Z,2.88
2023-01-11T20:04:49.909Z,1.88
2023-01-11T20:07:16.614Z,1.80
2023-01-11T20:09:43.481Z,3.67
2023-01-11T20:12:13.045Z,3.50
2023-01-11T20:14:40.560Z,2.17
2023-01-11T20:17:08.251Z,2.47
2023-01-11T20:19:34.874Z,1.95
2023-01-11T20:22:01.644Z,1.70
2023-01-11T20:24:28.449Z,2.30
2023-01-11T20:27:00.906Z,2.30
2023-01-11T20:29:27.861Z,2.08
2023-01-11T20:31:54.591Z,1.73
2023-01-11T20:34:21.544Z,2.55
2023-01-11T20:36:48.855Z,1.92
2023-01-11T20:39:15.646Z,2.47
2023-01-11T20:41:48.474Z,1.92
2023-01-11T20:44:27.730Z,2.25
2023-01-11T20:46:56.164Z,2.17
2023-01-11T20:49:26.119Z,2.30
2023-01-11T20:51:52.920Z,1.90
2023-01-11T20:54:19.814Z,2.13
2023-01-11T20:56:46.936Z,1.60
2023-01-11T20:59:17.342Z,2.55
2023-01-11T21:01:44.087Z,1.70
2023-01-11T21:04:12.113Z,1.60
2023-01-11T21:06:44.097Z,2.55
2023-01-11T21:09:13.633Z,1.70
2023-01-11T21:11:40.629Z,2.08
2023-01-11T21:14:12.133Z,2.35
2023-01-11T21:16:42.946Z,1.50
2023-01-11T21:19:15.163Z,2.20
2023-01-11T21:21:42.388Z,1.52
2023-01-11T21:24:13.109Z,2.65
2023-01-11T21:26:41.914Z,2.15
2023-01-11T21:29:10.298Z,2.90
2023-01-11T21:31:38.404Z,1.50
2023-01-11T21:34:05.452Z,1.80
2023-01-11T21:36:32.524Z,2.15
2023-01-11T21:39:00.617Z,1.95
2023-01-11T21:41:49.779Z,1.42
2023-01-11T21:44:17.973Z,1.90
2023-01-11T21:46:45.472Z,2.05
2023-01-11T21:49:13.007Z,2.40
2023-01-11T21:51:41.150Z,1.75
2023-01-11T21:54:12.788Z,3.38
2023-01-11T21:56:41.768Z,2.13
2023-01-11T21:59:08.973Z,2.22
2023-01-11T22:01:36.140Z,1.88
2023-01-11T22:04:14.808Z,2.55
2023-01-11T22:06:45.340Z,1.63
2023-01-11T22:09:12.189Z,2.55
2023-01-11T22:11:39.345Z,1.27
2023-01-11T22:14:08.428Z,2.95
2023-01-11T22:16:36.440Z,2.00
2023-01-11T22:19:06.017Z,1.85
2023-01-11T22:21:32.878Z,1.52
2023-01-11T22:23:59.821Z,2.17
2023-01-11T22:26:29.929Z,3.05
2023-01-11T22:29:22.573Z,2.40
2023-01-11T22:31:55.861Z,2.22
2023-01-11T22:34:23.259Z,3.22
2023-01-11T22:36:49.984Z,2.35
2023-01-11T22:39:19.483Z,2.70
2023-01-11T22:41:48.206Z,1.92
2023-01-11T22:44:15.679Z,3.63
2023-01-11T22:46:43.528Z,2.45
2023-01-11T22:49:11.519Z,2.30
2023-01-11T22:51:39.260Z,2.10
2023-01-11T22:54:05.923Z,1.65
2023-01-11T22:56:33.071Z,1.70
2023-01-11T22:59:00.104Z,2.05
2023-01-11T23:01:34.607Z,2.53
2023-01-11T23:04:02.349Z,1.42
2023-01-11T23:06:40.765Z,1.77
2023-01-11T23:09:14.705Z,1.65
2023-01-11T23:12:00.602Z,3.28
2023-01-11T23:14:32.658Z,1.90
2023-01-11T23:17:08.417Z,2.58
2023-01-11T23:19:37.957Z,2.13
2023-01-11T23:22:05.051Z,2.80
2023-01-11T23:24:31.799Z,1.90
2023-01-11T23:26:58.580Z,2.58
2023-01-11T23:29:25.293Z,2.05
2023-01-11T23:31:51.984Z,2.13
2023-01-11T23:34:18.711Z,2.05
2023-01-11T23:36:45.329Z,2.55
2023-01-11T23:39:15.926Z,1.70
2023-01-11T23:42:01.400Z,3.05
2023-01-11T23:44:28.044Z,2.53
2023-01-11T23:47:13.172Z,4.78
2023-01-11T23:49:40.043Z,2.33
2023-01-11T23:52:07.066Z,1.73
2023-01-11T23:54:34.708Z,2.05
2023-01-11T23:57:03.095Z,1.90
2023-01-11T23:59:30.423Z,2.05
